Time;durP1;ratioP1;P1;durP2;ratioP2;P2;SDS_P1;SDS_P2;PMS_P1;PMS_P2;Temp;Humidity;BMP_temperature;BMP_pressure;BME280_temperature;BME280_humidity;BME280_pressure;Samples;Min_cycle;Max_cycle;Signal;HPM_P1;HPM_P2
2023/12/28 00:00:48;;;;;;;32.58;19.60;;;;;;;6.61;62.55;95673.50;4166225;28;20042;-70
2023/12/28 00:02:50;;;;;;;30.33;19.48;;;;;;;6.76;62.14;95669.78;4186419;28;20159;-68
2023/12/28 00:04:52;;;;;;;26.92;19.45;;;;;;;6.88;61.39;95668.09;4185893;28;20149;-69
2023/12/28 00:06:54;;;;;;;30.42;19.98;;;;;;;7.01;61.45;95672.38;4186743;28;20060;-71
2023/12/28 00:08:56;;;;;;;28.33;19.45;;;;;;;7.03;61.10;95676.50;4190533;28;20066;-69
2023/12/28 00:11:11;;;;;;;29.58;20.25;;;;;;;7.05;61.29;95677.22;4190652;28;20049;-71
2023/12/28 00:13:13;;;;;;;25.05;17.65;;;;;;;6.96;61.04;95672.72;4197903;28;20124;-70
2023/12/28 00:15:14;;;;;;;28.73;18.25;;;;;;;6.94;60.97;95678.03;4181963;28;20163;-69
2023/12/28 00:17:17;;;;;;;31.50;17.95;;;;;;;6.92;60.83;95679.91;4177724;28;20049;-68
2023/12/28 00:19:20;;;;;;;25.92;17.38;;;;;;;6.94;60.84;95687.63;4183855;28;20045;-68
2023/12/28 00:21:23;;;;;;;25.23;16.05;;;;;;;6.95;61.05;95689.28;4185630;28;20045;-68
2023/12/28 00:23:25;;;;;;;27.35;17.45;;;;;;;6.95;60.92;95687.53;4188767;28;20106;-68
2023/12/28 00:25:26;;;;;;;27.10;17.40;;;;;;;7.00;60.46;95684.56;4189413;28;20553;-70
2023/12/28 00:27:28;;;;;;;25.98;17.05;;;;;;;7.04;60.18;95682.56;4189197;28;20056;-67
2023/12/28 00:29:34;;;;;;;26.80;18.50;;;;;;;7.08;60.29;95691.84;4181923;28;20056;-69
2023/12/28 00:31:36;;;;;;;27.23;17.85;;;;;;;7.09;60.51;95688.28;4191356;28;20709;-70
2023/12/28 00:33:38;;;;;;;24.63;16.73;;;;;;;7.08;60.49;95695.25;4174731;28;20072;-68
2023/12/28 00:35:40;;;;;;;27.50;17.98;;;;;;;7.12;59.99;95694.09;4191139;28;20407;-70
2023/12/28 00:37:42;;;;;;;26.60;17.33;;;;;;;7.09;60.21;95701.28;4183267;28;20284;-72
2023/12/28 00:39:46;;;;;;;26.92;17.70;;;;;;;7.01;60.57;95688.00;4190047;28;20106;-71
2023/12/28 00:41:49;;;;;;;26.23;17.10;;;;;;;6.97;60.54;95693.44;4182101;28;20498;-71
2023/12/28 00:43:50;;;;;;;27.02;17.58;;;;;;;6.85;60.17;95698.72;4185110;28;20066;-70
2023/12/28 00:45:52;;;;;;;27.15;17.08;;;;;;;6.79;61.18;95692.16;4179713;28;20088;-71
2023/12/28 00:47:56;;;;;;;29.45;18.40;;;;;;;6.73;61.12;95696.06;4187334;28;20521;-68
2023/12/28 00:49:59;;;;;;;27.38;18.38;;;;;;;6.76;61.33;95706.25;4180566;28;20055;-69
2023/12/28 00:52:01;;;;;;;25.38;17.58;;;;;;;6.79;61.29;95705.19;4181903;28;20468;-70
2023/12/28 00:54:03;;;;;;;27.30;17.25;;;;;;;6.81;61.24;95712.91;4185524;28;20057;-71
2023/12/28 00:56:05;;;;;;;27.38;17.90;;;;;;;6.78;60.95;95711.34;4181680;28;20069;-69
2023/12/28 00:58:07;;;;;;;26.95;18.23;;;;;;;6.79;61.37;95715.63;4184562;28;20048;-70
2023/12/28 01:00:09;;;;;;;27.10;18.05;;;;;;;6.84;61.83;95713.53;4192509;28;20056;-69
2023/12/28 01:02:11;;;;;;;35.03;18.33;;;;;;;6.86;62.15;95711.63;4193188;28;20475;-70
2023/12/28 01:04:13;;;;;;;30.98;19.25;;;;;;;6.88;61.96;95714.97;4172682;28;20128;-69
2023/12/28 01:06:15;;;;;;;32.55;19.73;;;;;;;6.88;62.20;95716.72;4190561;28;20408;-68
2023/12/28 01:08:17;;;;;;;31.55;18.73;;;;;;;6.91;62.22;95713.91;4198990;28;20128;-71
2023/12/28 01:10:19;;;;;;;32.08;19.02;;;;;;;6.87;61.77;95712.47;4184570;28;20095;-69
2023/12/28 01:12:21;;;;;;;29.70;19.15;;;;;;;6.81;61.69;95713.72;4191223;28;20088;-70
2023/12/28 01:14:23;;;;;;;32.08;20.27;;;;;;;6.83;61.91;95708.41;4183197;28;20136;-70
2023/12/28 01:16:25;;;;;;;33.13;21.20;;;;;;;6.88;61.96;95703.69;4187904;28;20071;-69
2023/12/28 01:18:27;;;;;;;27.95;18.52;;;;;;;6.84;61.85;95710.06;4194649;28;20486;-69
2023/12/28 01:20:29;;;;;;;31.88;18.65;;;;;;;6.82;61.66;95707.59;4187004;28;20148;-70
2023/12/28 01:22:30;;;;;;;27.30;19.60;;;;;;;6.82;61.54;95711.94;4188200;28;20614;-68
2023/12/28 01:24:32;;;;;;;31.17;18.88;;;;;;;6.79;61.60;95715.63;4190923;28;20373;-70
2023/12/28 01:26:34;;;;;;;29.83;19.95;;;;;;;6.75;61.46;95708.97;4192924;28;20198;-68
2023/12/28 01:28:36;;;;;;;30.55;18.73;;;;;;;6.74;61.40;95712.53;4193408;28;20051;-70
2023/12/28 01:30:38;;;;;;;28.63;19.85;;;;;;;6.76;61.97;95708.03;4190777;28;20048;-68
2023/12/28 01:32:40;;;;;;;35.15;20.63;;;;;;;6.80;61.82;95712.06;4189715;28;20040;-68
2023/12/28 01:34:42;;;;;;;33.40;23.92;;;;;;;6.84;61.81;95708.31;4190870;28;20053;-68
2023/12/28 01:36:45;;;;;;;34.10;24.77;;;;;;;6.88;61.73;95703.69;4183840;28;20499;-68
2023/12/28 01:38:47;;;;;;;34.22;23.65;;;;;;;6.88;62.05;95701.94;4170925;28;20478;-68
2023/12/28 01:40:48;;;;;;;33.95;21.63;;;;;;;6.88;61.58;95701.94;4187233;28;20049;-70
2023/12/28 01:42:50;;;;;;;33.13;20.70;;;;;;;6.78;61.87;95697.50;4192357;28;20446;-67
2023/12/28 01:44:52;;;;;;;34.03;20.70;;;;;;;6.62;62.18;95696.00;4176111;28;20547;-69
2023/12/28 01:46:54;;;;;;;33.58;20.27;;;;;;;6.57;62.46;95703.31;4188711;28;20049;-69
2023/12/28 01:48:56;;;;;;;30.02;19.05;;;;;;;6.50;62.70;95697.72;4175757;28;20155;-70
2023/12/28 01:50:58;;;;;;;30.70;18.17;;;;;;;6.50;62.87;95705.53;4184225;28;20056;-70
2023/12/28 01:53:01;;;;;;;29.98;18.67;;;;;;;6.45;63.08;95697.19;4190106;28;20116;-69
2023/12/28 01:55:04;;;;;;;34.15;20.50;;;;;;;6.47;62.99;95697.91;4174302;28;20072;-68
2023/12/28 01:57:06;;;;;;;29.30;18.33;;;;;;;6.47;63.07;95700.53;4174761;28;20045;-70
2023/12/28 01:59:08;;;;;;;27.17;18.05;;;;;;;6.46;62.94;95698.88;4195084;28;20044;-70
2023/12/28 02:01:11;;;;;;;28.38;19.23;;;;;;;6.53;62.84;95697.47;4193366;28;20052;-70
2023/12/28 02:03:14;;;;;;;30.08;19.58;;;;;;;6.51;62.36;95699.38;4171313;28;20080;-68
2023/12/28 02:05:16;;;;;;;29.65;18.88;;;;;;;6.40;62.42;95694.09;4188238;28;20048;-69
2023/12/28 02:07:18;;;;;;;28.70;19.60;;;;;;;6.39;63.22;95694.19;4191084;28;20131;-67
2023/12/28 02:09:20;;;;;;;30.27;20.00;;;;;;;6.40;62.54;95694.09;4174533;28;20037;-69
2023/12/28 02:11:22;;;;;;;32.13;18.98;;;;;;;6.47;62.56;95691.88;4188433;28;20089;-68
2023/12/28 02:13:25;;;;;;;30.08;19.67;;;;;;;6.45;62.40;95694.59;4186346;28;20056;-69
2023/12/28 02:15:26;;;;;;;30.15;19.25;;;;;;;6.45;62.37;95694.59;4181192;28;20063;-70
2023/12/28 02:17:28;;;;;;;26.63;18.08;;;;;;;6.38;62.43;95695.97;4191433;28;20057;-69
2023/12/28 02:19:53;;;;;;;29.80;18.80;;;;;;;6.39;62.38;95700.25;4183556;28;20079;-69
2023/12/28 02:21:54;;;;;;;35.15;20.15;;;;;;;6.42;62.42;95696.59;4167680;28;20467;-68
2023/12/28 02:23:57;;;;;;;33.13;20.02;;;;;;;6.44;62.20;95695.53;4191776;28;20044;-71
2023/12/28 02:25:59;;;;;;;30.42;18.95;;;;;;;6.43;61.70;95693.91;4191416;28;20137;-69
2023/12/28 02:28:00;;;;;;;32.00;19.90;;;;;;;6.38;62.19;95692.56;4175461;28;20061;-69
2023/12/28 02:30:04;;;;;;;29.92;19.52;;;;;;;6.37;62.68;95686.53;4187246;28;20072;-69
2023/12/28 02:32:07;;;;;;;31.80;19.83;;;;;;;6.35;62.92;95691.00;4192016;28;20127;-69
2023/12/28 02:34:16;;;;;;;28.67;19.35;;;;;;;6.28;62.84;95693.22;4167216;28;20041;-68
2023/12/28 02:36:19;;;;;;;35.63;22.02;;;;;;;6.14;63.08;95691.56;4182947;28;20045;-69
2023/12/28 02:38:23;;;;;;;28.92;19.52;;;;;;;6.06;63.30;95696.47;4168156;28;20052;-69
2023/12/28 02:40:26;;;;;;;30.25;19.30;;;;;;;5.97;63.18;95697.13;4173204;28;20136;-70
2023/12/28 02:42:28;;;;;;;29.40;19.67;;;;;;;5.82;62.96;95687.75;4164073;28;20406;-68
2023/12/28 02:44:30;;;;;;;29.85;20.42;;;;;;;5.70;63.58;95699.81;4174614;28;20060;-70
2023/12/28 02:46:31;;;;;;;30.23;19.80;;;;;;;5.65;64.08;95697.50;4183906;28;20426;-68
2023/12/28 02:48:33;;;;;;;30.02;20.40;;;;;;;5.66;63.65;95693.16;4191810;28;20056;-67
2023/12/28 02:50:35;;;;;;;27.92;18.83;;;;;;;5.70;63.38;95692.84;4189859;28;20071;-69
2023/12/28 02:52:37;;;;;;;24.38;16.90;;;;;;;5.70;63.08;95690.25;4185467;28;20064;-69
2023/12/28 02:54:39;;;;;;;24.30;17.42;;;;;;;5.71;62.80;95691.91;4191913;28;20139;-68
2023/12/28 02:56:41;;;;;;;24.42;17.17;;;;;;;5.75;62.53;95682.97;4189438;28;20055;-69
2023/12/28 02:58:43;;;;;;;23.50;17.48;;;;;;;5.77;63.08;95687.25;4189908;28;20191;-71
2023/12/28 03:00:45;;;;;;;24.98;18.15;;;;;;;5.74;63.42;95688.25;4173752;28;20052;-69
2023/12/28 03:02:47;;;;;;;27.10;20.25;;;;;;;5.63;62.56;95683.78;4173976;28;20106;-69
2023/12/28 03:04:49;;;;;;;30.17;22.35;;;;;;;4.89;63.26;95686.13;4189305;28;20148;-69
2023/12/28 03:06:51;;;;;;;35.25;25.30;;;;;;;4.36;66.60;95689.56;4186886;28;20044;-68
2023/12/28 03:08:53;;;;;;;38.08;29.25;;;;;;;4.20;67.34;95685.34;4191471;28;20078;-67
2023/12/28 03:10:55;;;;;;;34.55;25.23;;;;;;;4.28;67.32;95679.66;4190540;28;20048;-70
2023/12/28 03:12:57;;;;;;;39.08;27.75;;;;;;;4.47;67.60;95674.13;4192133;28;20052;-70
2023/12/28 03:14:59;;;;;;;36.42;26.45;;;;;;;4.64;66.95;95667.88;4191366;28;20052;-69
2023/12/28 03:17:01;;;;;;;39.78;29.02;;;;;;;4.67;66.17;95667.69;4173093;28;20040;-70
2023/12/28 03:19:04;;;;;;;43.25;32.50;;;;;;;4.46;66.91;95672.47;4182755;28;20071;-68
2023/12/28 03:21:06;;;;;;;41.55;30.73;;;;;;;3.96;69.02;95673.88;4191829;28;20509;-71
2023/12/28 03:23:08;;;;;;;43.78;31.90;;;;;;;3.68;70.93;95675.59;4191384;28;20052;-68
2023/12/28 03:25:10;;;;;;;47.78;33.38;;;;;;;3.57;71.66;95680.56;4187780;28;20056;-70
2023/12/28 03:27:11;;;;;;;41.65;31.17;;;;;;;3.69;71.76;95670.28;4179702;28;20558;-69
2023/12/28 03:29:13;;;;;;;45.78;31.05;;;;;;;3.96;71.80;95677.31;4184686;28;20211;-69
2023/12/28 03:31:15;;;;;;;39.92;29.77;;;;;;;4.20;70.31;95674.13;4190143;28;20515;-68
2023/12/28 03:33:19;;;;;;;41.47;29.40;;;;;;;4.39;69.37;95677.22;4179489;28;20471;-68
2023/12/28 03:35:22;;;;;;;41.47;29.60;;;;;;;4.59;68.38;95682.91;4164229;28;20059;-69
2023/12/28 03:37:24;;;;;;;37.38;28.05;;;;;;;4.46;68.57;95696.66;4189614;28;20106;-69
2023/12/28 03:39:26;;;;;;;39.38;29.88;;;;;;;3.98;69.88;95693.63;4191852;28;20431;-68
2023/12/28 03:41:27;;;;;;;40.75;30.25;;;;;;;3.43;71.77;95695.19;4190233;28;20163;-70
2023/12/28 03:43:29;;;;;;;41.75;30.50;;;;;;;3.22;73.02;95696.44;4188565;28;20131;-68
2023/12/28 03:45:31;;;;;;;35.85;27.55;;;;;;;3.51;73.67;95697.34;4188585;28;20139;-69
2023/12/28 03:47:33;;;;;;;40.15;27.98;;;;;;;3.85;72.68;95700.47;4185504;28;20235;-70
2023/12/28 03:49:35;;;;;;;39.42;28.92;;;;;;;4.08;70.66;95707.66;4187559;28;20075;-69
2023/12/28 03:51:37;;;;;;;37.28;27.55;;;;;;;4.28;69.79;95706.44;4182305;28;20097;-69
2023/12/28 03:53:38;;;;;;;34.10;26.10;;;;;;;4.46;69.45;95709.63;4186963;28;20065;-71
2023/12/28 03:55:40;;;;;;;34.90;26.02;;;;;;;4.65;69.07;95705.88;4188922;28;20144;-70
2023/12/28 03:57:42;;;;;;;36.35;26.67;;;;;;;4.69;67.90;95713.38;4190734;28;20052;-69
2023/12/28 03:59:44;;;;;;;34.30;25.98;;;;;;;4.82;67.85;95713.41;4190689;28;20051;-69
2023/12/28 04:01:47;;;;;;;34.45;26.13;;;;;;;4.96;67.99;95707.31;4186861;28;20139;-69
2023/12/28 04:03:49;;;;;;;35.85;25.45;;;;;;;5.10;66.64;95706.44;4178893;28;20052;-69
2023/12/28 04:05:51;;;;;;;36.85;26.25;;;;;;;5.16;66.56;95703.41;4190194;28;20181;-68
2023/12/28 04:07:53;;;;;;;34.17;24.35;;;;;;;5.18;66.20;95711.09;4168321;28;20144;-70
2023/12/28 04:09:56;;;;;;;36.97;25.60;;;;;;;5.16;66.18;95705.16;4180279;28;20049;-68
2023/12/28 04:11:58;;;;;;;34.78;26.05;;;;;;;5.18;66.05;95709.31;4187742;28;20068;-68
2023/12/28 04:14:00;;;;;;;35.08;26.23;;;;;;;5.15;65.81;95706.94;4191457;28;20053;-71
2023/12/28 04:16:02;;;;;;;31.77;23.67;;;;;;;5.12;65.68;95704.56;4192051;28;20150;-70
2023/12/28 04:18:04;;;;;;;32.17;24.67;;;;;;;5.19;65.72;95711.00;4191939;28;20080;-70
2023/12/28 04:20:07;;;;;;;36.08;24.65;;;;;;;5.26;66.24;95706.22;4189419;28;20044;-70
2023/12/28 04:22:09;;;;;;;34.90;25.60;;;;;;;5.29;66.05;95713.81;4189558;28;20045;-68
2023/12/28 04:24:10;;;;;;;32.88;23.95;;;;;;;5.31;66.38;95710.19;4184596;28;20052;-69
2023/12/28 04:26:12;;;;;;;35.00;24.80;;;;;;;5.42;65.59;95706.03;4190220;28;20064;-69
2023/12/28 04:28:14;;;;;;;33.88;24.23;;;;;;;5.42;65.65;95701.69;4188516;28;20135;-68
2023/12/28 04:30:16;;;;;;;36.40;25.85;;;;;;;5.45;65.08;95700.66;4190289;28;20087;-70
2023/12/28 04:32:18;;;;;;;35.28;24.20;;;;;;;5.52;65.48;95704.50;4190864;28;20049;-68
2023/12/28 04:34:20;;;;;;;32.80;24.20;;;;;;;5.49;65.20;95708.13;4193228;28;20048;-68
2023/12/28 04:36:22;;;;;;;35.40;24.52;;;;;;;5.47;65.23;95709.19;4192877;28;20048;-71
2023/12/28 04:38:24;;;;;;;33.05;23.70;;;;;;;5.47;65.07;95709.19;4186516;28;20461;-72
2023/12/28 04:40:25;;;;;;;31.58;24.13;;;;;;;5.41;65.10;95705.22;4191844;28;20056;-70
2023/12/28 04:42:27;;;;;;;30.48;23.80;;;;;;;5.43;65.57;95708.53;4186846;28;20080;-70
2023/12/28 04:44:29;;;;;;;33.58;25.35;;;;;;;5.41;64.96;95709.59;4190795;28;20052;-69
2023/12/28 04:46:31;;;;;;;34.53;25.02;;;;;;;5.39;65.04;95706.25;4191312;28;20048;-70
2023/12/28 04:48:33;;;;;;;33.55;23.65;;;;;;;5.40;65.29;95713.94;4194766;28;20050;-71
2023/12/28 04:50:35;;;;;;;34.10;23.77;;;;;;;5.45;64.86;95700.66;4192711;28;20052;-70
2023/12/28 04:52:40;;;;;;;41.17;24.85;;;;;;;5.46;64.67;95704.91;4193726;28;20072;-70
2023/12/28 04:54:43;;;;;;;33.10;24.13;;;;;;;5.41;64.97;95704.38;4193346;28;20212;-70
2023/12/28 04:56:45;;;;;;;32.13;24.52;;;;;;;5.44;65.00;95701.56;4189152;28;20055;-69
2023/12/28 04:58:47;;;;;;;32.30;24.17;;;;;;;5.44;65.01;95699.81;4192157;28;20049;-70
2023/12/28 05:00:49;;;;;;;30.85;23.75;;;;;;;5.46;65.40;95695.34;4190158;28;20084;-71
2023/12/28 05:02:50;;;;;;;35.17;23.00;;;;;;;5.50;65.52;95694.19;4188780;28;20061;-69
2023/12/28 05:04:52;;;;;;;36.03;24.77;;;;;;;5.51;65.43;95693.28;4200597;28;20079;-69
2023/12/28 05:06:55;;;;;;;33.63;24.67;;;;;;;5.46;64.79;95699.69;4190102;28;20048;-70
2023/12/28 05:08:56;;;;;;;34.88;24.80;;;;;;;5.37;65.22;95705.53;4186290;28;20052;-70
2023/12/28 05:10:58;;;;;;;34.65;24.70;;;;;;;5.26;65.91;95701.03;4183599;28;20044;-70
2023/12/28 05:13:00;;;;;;;35.25;25.27;;;;;;;5.23;65.47;95698.66;4193073;28;20063;-70
2023/12/28 05:15:03;;;;;;;37.28;25.23;;;;;;;4.98;65.52;95708.03;4202691;28;20056;-72
2023/12/28 05:17:05;;;;;;;34.50;26.25;;;;;;;4.70;66.45;95704.63;4190862;28;20422;-69
2023/12/28 05:19:08;;;;;;;36.20;25.70;;;;;;;4.60;67.25;95702.72;4181358;28;20140;-69
2023/12/28 05:21:11;;;;;;;34.00;25.00;;;;;;;4.55;67.81;95710.00;4185633;28;20045;-70
2023/12/28 05:23:13;;;;;;;38.67;28.60;;;;;;;4.58;68.26;95709.78;4193004;28;20049;-71
2023/12/28 05:25:15;;;;;;;35.53;25.55;;;;;;;4.67;67.58;95709.22;4174375;28;20132;-71
2023/12/28 05:27:17;;;;;;;34.25;25.27;;;;;;;4.75;67.17;95706.94;4186605;28;20171;-69
2023/12/28 05:29:19;;;;;;;40.35;25.55;;;;;;;4.83;67.45;95702.09;4194016;28;20059;-70
2023/12/28 05:31:21;;;;;;;34.72;26.48;;;;;;;4.84;66.91;95708.09;4190121;28;20091;-72
2023/12/28 05:33:23;;;;;;;39.70;29.90;;;;;;;4.90;66.35;95705.13;4166345;28;20167;-69
2023/12/28 05:35:25;;;;;;;39.78;28.35;;;;;;;4.89;66.14;95708.66;4186559;28;20424;-71
2023/12/28 05:37:27;;;;;;;38.00;27.35;;;;;;;4.91;66.29;95712.00;4191831;28;20960;-71
2023/12/28 05:39:29;;;;;;;37.88;27.95;;;;;;;4.92;66.15;95717.06;4191867;28;20056;-70
2023/12/28 05:41:31;;;;;;;39.30;27.65;;;;;;;4.88;65.99;95707.84;4192203;28;20049;-71
2023/12/28 05:43:33;;;;;;;36.45;27.30;;;;;;;4.95;66.76;95715.19;4183992;28;20492;-70
2023/12/28 05:45:34;;;;;;;35.47;27.00;;;;;;;4.93;66.45;95721.34;4194079;28;20177;-70
2023/12/28 05:47:36;;;;;;;36.28;25.83;;;;;;;4.98;66.32;95717.59;4185827;28;20063;-70
2023/12/28 05:49:38;;;;;;;35.35;26.92;;;;;;;5.02;66.48;95722.50;4193157;28;20094;-71
2023/12/28 05:51:41;;;;;;;33.92;25.02;;;;;;;5.09;66.18;95720.34;4193366;28;20439;-70
2023/12/28 05:53:43;;;;;;;36.67;25.63;;;;;;;5.15;65.32;95722.53;4191472;28;20124;-70
2023/12/28 05:55:44;;;;;;;37.50;26.17;;;;;;;5.12;65.44;95725.34;4191284;28;20083;-71
2023/12/28 05:57:47;;;;;;;35.97;24.10;;;;;;;5.18;64.88;95724.91;4193967;28;20391;-72
2023/12/28 05:59:49;;;;;;;34.05;25.17;;;;;;;5.18;65.27;95737.91;4172283;28;20051;-70
2023/12/28 06:01:51;;;;;;;38.70;25.00;;;;;;;5.20;64.69;95730.84;4187850;28;20114;-70
2023/12/28 06:03:53;;;;;;;39.20;26.85;;;;;;;5.20;65.37;95738.63;4192017;28;20109;-70
2023/12/28 06:05:55;;;;;;;38.10;25.17;;;;;;;5.22;65.28;95738.53;4198140;28;20540;-71
2023/12/28 06:07:58;;;;;;;32.20;24.38;;;;;;;5.23;65.31;95738.44;4172488;28;20049;-70
2023/12/28 06:10:00;;;;;;;35.50;23.95;;;;;;;5.30;65.55;95733.69;4190142;28;20052;-69
2023/12/28 06:12:02;;;;;;;32.10;24.38;;;;;;;5.32;64.52;95732.63;4192760;28;20044;-71
2023/12/28 06:14:04;;;;;;;32.17;23.38;;;;;;;5.34;65.08;95738.56;4184647;28;20055;-70
2023/12/28 06:16:06;;;;;;;35.92;24.10;;;;;;;5.30;65.26;95739.69;4192438;28;20475;-71
2023/12/28 06:18:08;;;;;;;31.48;22.98;;;;;;;5.32;64.98;95734.41;4187489;28;20058;-69
2023/12/28 06:20:10;;;;;;;36.17;26.48;;;;;;;5.28;65.50;95744.16;4189492;28;20671;-69
2023/12/28 06:22:12;;;;;;;34.53;24.40;;;;;;;5.22;65.38;95741.97;4193523;28;20101;-68
2023/12/28 06:24:15;;;;;;;36.35;25.50;;;;;;;5.23;65.68;95737.63;4192512;28;20048;-70
2023/12/28 06:26:17;;;;;;;34.83;23.75;;;;;;;5.27;65.21;95737.31;4189102;28;20048;-70
2023/12/28 06:28:22;;;;;;;33.85;23.85;;;;;;;5.31;64.56;95746.56;4191784;28;20084;-69
2023/12/28 06:30:24;;;;;;;36.55;24.98;;;;;;;5.41;64.63;95743.38;4188510;28;20055;-71
2023/12/28 06:32:26;;;;;;;34.60;22.95;;;;;;;5.40;64.67;95739.94;4181035;28;20084;-69
2023/12/28 06:34:29;;;;;;;32.22;22.95;;;;;;;5.66;64.91;95740.78;4183813;28;20085;-69
2023/12/28 06:36:31;;;;;;;36.90;24.13;;;;;;;6.18;63.34;95733.00;4182033;28;20060;-71
2023/12/28 06:38:33;;;;;;;33.58;22.25;;;;;;;6.83;60.69;95743.09;4189664;28;20132;-72
2023/12/28 06:40:35;;;;;;;38.85;23.27;;;;;;;7.35;59.67;95735.84;4187116;28;20510;-71
2023/12/28 06:42:37;;;;;;;38.33;27.23;;;;;;;7.73;57.52;95729.56;4193689;28;20490;-72
2023/12/28 06:44:38;;;;;;;36.13;24.00;;;;;;;7.91;57.21;95730.75;4181208;28;20424;-70
2023/12/28 06:46:41;;;;;;;33.17;24.38;;;;;;;7.84;57.28;95734.78;4182269;28;20052;-72
2023/12/28 06:48:43;;;;;;;36.53;25.00;;;;;;;7.64;57.95;95741.50;4186940;28;20410;-71
2023/12/28 06:50:45;;;;;;;35.13;24.73;;;;;;;7.49;57.91;95737.44;4168748;28;20563;-71
2023/12/28 06:52:47;;;;;;;35.47;25.00;;;;;;;7.31;58.48;95737.88;4175391;28;20060;-71
2023/12/28 06:54:51;;;;;;;39.72;26.15;;;;;;;7.13;59.22;95749.63;4183051;28;20044;-70
2023/12/28 06:56:53;;;;;;;37.47;26.65;;;;;;;7.02;59.98;95753.03;4168017;28;20092;-72
2023/12/28 06:58:55;;;;;;;41.65;25.65;;;;;;;6.94;59.97;95742.31;4185232;28;20060;-71
2023/12/28 07:00:57;;;;;;;38.05;27.35;;;;;;;6.94;60.05;95740.53;4187676;28;20359;-73
2023/12/28 07:02:59;;;;;;;40.08;27.02;;;;;;;6.94;60.34;95743.16;4189373;28;20124;-71
2023/12/28 07:05:01;;;;;;;44.65;31.33;;;;;;;6.90;60.44;95753.91;4191664;28;20132;-70
2023/12/28 07:07:03;;;;;;;43.67;28.48;;;;;;;6.91;60.54;95753.81;4173765;28;20424;-70
2023/12/28 07:09:05;;;;;;;42.28;27.60;;;;;;;6.90;60.89;95752.13;4184534;28;20136;-70
2023/12/28 07:11:10;;;;;;;42.17;29.27;;;;;;;6.81;60.86;95755.41;4183969;28;20068;-71
2023/12/28 07:13:12;;;;;;;41.05;27.98;;;;;;;6.77;60.11;95748.75;4165844;28;20476;-71
2023/12/28 07:15:14;;;;;;;38.92;26.83;;;;;;;6.81;60.07;95755.41;4189647;28;20056;-68
2023/12/28 07:17:17;;;;;;;39.78;26.95;;;;;;;6.77;60.04;95756.56;4186580;28;20068;-71
2023/12/28 07:19:19;;;;;;;37.88;25.15;;;;;;;6.62;60.42;95749.84;4168575;28;20586;-69
2023/12/28 07:21:21;;;;;;;37.70;25.88;;;;;;;6.56;60.82;95757.16;4180814;28;20051;-71
2023/12/28 07:23:22;;;;;;;39.72;26.63;;;;;;;6.61;60.72;95751.63;4191059;28;20092;-69
2023/12/28 07:25:24;;;;;;;39.53;25.15;;;;;;;6.64;60.44;95759.19;4188702;28;20049;-71
2023/12/28 07:27:26;;;;;;;32.60;23.55;;;;;;;6.64;60.81;95758.38;4186580;28;20048;-70
2023/12/28 07:29:29;;;;;;;33.13;22.60;;;;;;;6.70;60.10;95756.16;4174089;28;20079;-70
2023/12/28 07:31:31;;;;;;;28.27;20.23;;;;;;;6.71;59.71;95744.81;4186599;28;20507;-70
2023/12/28 07:33:34;;;;;;;31.15;20.80;;;;;;;6.78;59.65;95758.25;4179799;28;20651;-73
2023/12/28 07:35:36;;;;;;;31.13;21.40;;;;;;;6.85;59.75;95761.22;4183526;28;20071;-69
2023/12/28 07:37:38;;;;;;;34.22;22.73;;;;;;;6.99;59.37;95750.66;4190147;28;20222;-72
2023/12/28 07:39:39;;;;;;;29.33;20.73;;;;;;;7.02;59.37;95762.63;4183757;28;20055;-71
2023/12/28 07:41:41;;;;;;;32.72;20.90;;;;;;;6.95;59.19;95754.44;4194320;28;20167;-71
2023/12/28 07:43:43;;;;;;;28.38;20.67;;;;;;;7.03;58.92;95748.63;4191569;28;20056;-71
2023/12/28 07:45:45;;;;;;;31.83;21.20;;;;;;;7.03;59.07;95748.63;4191346;28;20052;-72
2023/12/28 07:47:47;;;;;;;29.85;21.17;;;;;;;7.04;58.77;95756.34;4191801;28;20451;-70
2023/12/28 07:49:50;;;;;;;33.53;21.45;;;;;;;7.06;58.83;95748.44;4191108;28;20044;-71
2023/12/28 07:51:52;;;;;;;33.30;20.55;;;;;;;7.16;58.44;95754.63;4180558;28;20045;-73
2023/12/28 07:53:53;;;;;;;32.47;22.20;;;;;;;7.24;58.28;95757.50;4189094;28;20136;-72
2023/12/28 07:55:56;;;;;;;40.95;22.55;;;;;;;7.30;57.87;95757.06;4185930;28;20053;-72
2023/12/28 07:57:58;;;;;;;29.55;22.90;;;;;;;7.38;57.90;95759.09;4192362;28;20081;-72
2023/12/28 08:00:01;;;;;;;31.98;23.17;;;;;;;7.43;57.39;95761.38;4185485;28;20167;-71
2023/12/28 08:02:03;;;;;;;32.25;23.38;;;;;;;7.50;57.64;95767.78;4189490;28;20052;-70
2023/12/28 08:04:04;;;;;;;35.10;25.67;;;;;;;7.36;57.95;95771.41;4186788;28;20099;-72
2023/12/28 08:06:07;;;;;;;39.90;25.75;;;;;;;7.00;58.79;95761.91;4183905;28;20124;-69
2023/12/28 08:08:08;;;;;;;41.60;27.00;;;;;;;6.85;59.65;95761.22;4187390;28;20067;-70
2023/12/28 08:10:10;;;;;;;44.75;27.00;;;;;;;6.77;59.76;95753.94;4186669;28;20048;-70
2023/12/28 08:12:12;;;;;;;38.28;25.77;;;;;;;6.81;60.27;95750.19;4191704;28;20040;-73
2023/12/28 08:14:14;;;;;;;40.70;24.85;;;;;;;7.02;60.14;95752.19;4195303;28;20139;-72
2023/12/28 08:16:16;;;;;;;46.03;28.27;;;;;;;7.22;59.92;95745.53;4187804;28;20132;-72
2023/12/28 08:18:18;;;;;;;34.90;26.00;;;;;;;7.41;58.90;95745.81;4193661;28;20052;-69
2023/12/28 08:20:20;;;;;;;38.20;26.20;;;;;;;7.62;58.64;95742.56;4192989;28;20135;-70
2023/12/28 08:22:21;;;;;;;46.38;27.58;;;;;;;7.70;58.16;95741.06;4195122;28;20584;-72
2023/12/28 08:24:23;;;;;;;41.40;25.95;;;;;;;7.74;57.39;95739.03;4195605;28;20124;-69
2023/12/28 08:26:26;;;;;;;47.92;24.10;;;;;;;7.88;57.45;95735.38;4193882;28;20052;-71
2023/12/28 08:28:28;;;;;;;35.53;22.27;;;;;;;7.98;57.22;95746.78;4189376;28;20450;-71
2023/12/28 08:30:30;;;;;;;30.83;20.52;;;;;;;8.14;56.23;95744.63;4177435;28;20235;-72
2023/12/28 08:32:32;;;;;;;31.95;20.38;;;;;;;8.21;55.87;95743.22;4190618;28;20634;-74
2023/12/28 08:34:34;;;;;;;25.23;18.98;;;;;;;8.21;55.75;95743.22;4167436;28;20053;-71
2023/12/28 08:36:36;;;;;;;28.70;18.95;;;;;;;8.16;55.34;95744.53;4190946;28;20429;-71
2023/12/28 08:38:38;;;;;;;28.67;18.67;;;;;;;8.00;56.25;95744.88;4190147;28;20044;-72
2023/12/28 08:40:40;;;;;;;30.13;18.23;;;;;;;8.06;55.52;95744.41;4193628;28;20490;-71
2023/12/28 08:42:41;;;;;;;28.20;18.58;;;;;;;8.08;56.18;95744.28;4193123;28;20049;-70
2023/12/28 08:44:43;;;;;;;21.73;18.17;;;;;;;8.12;56.49;95733.50;4195424;28;20470;-70
2023/12/28 08:46:48;;;;;;;27.30;17.33;;;;;;;8.00;55.77;95735.28;4193086;28;20049;-71
2023/12/28 08:48:50;;;;;;;26.85;17.08;;;;;;;7.85;56.47;95735.59;4188497;28;20123;-71
2023/12/28 08:50:52;;;;;;;22.90;17.25;;;;;;;7.84;56.68;95729.56;4193987;28;20045;-70
2023/12/28 08:52:54;;;;;;;28.63;17.10;;;;;;;8.06;55.87;95726.13;4191580;28;20646;-73
2023/12/28 08:54:56;;;;;;;28.88;18.20;;;;;;;8.21;55.36;95722.31;4192117;28;20100;-69
2023/12/28 08:56:58;;;;;;;25.67;17.42;;;;;;;8.11;55.89;95715.31;4188429;28;20047;-70
2023/12/28 08:59:01;;;;;;;26.83;18.15;;;;;;;7.89;55.74;95710.94;4188065;28;20157;-69
2023/12/28 09:01:03;;;;;;;28.13;17.70;;;;;;;8.00;55.96;95713.53;4176268;28;20045;-72
2023/12/28 09:03:05;;;;;;;26.08;18.00;;;;;;;8.12;56.52;95707.38;4193402;28;20052;-70
2023/12/28 09:05:07;;;;;;;26.20;18.17;;;;;;;8.33;55.74;95711.91;4193368;28;20078;-71
2023/12/28 09:07:09;;;;;;;31.48;20.67;;;;;;;8.40;55.22;95716.53;4188880;28;20049;-69
2023/12/28 09:09:12;;;;;;;31.40;20.55;;;;;;;8.44;54.69;95709.28;4169521;28;20557;-72
2023/12/28 09:11:14;;;;;;;35.08;22.48;;;;;;;8.22;55.47;95712.75;4188205;28;20303;-71
2023/12/28 09:13:19;;;;;;;42.83;25.88;;;;;;;8.29;55.17;95706.06;4191271;28;20071;-68
2023/12/28 09:15:21;;;;;;;26.30;18.77;;;;;;;8.50;54.75;95702.78;4193654;28;20322;-71
2023/12/28 09:17:24;;;;;;;26.48;19.38;;;;;;;8.27;55.35;95705.38;4194867;28;20044;-72
2023/12/28 09:19:26;;;;;;;27.20;18.42;;;;;;;8.46;55.17;95699.56;4193311;28;20111;-74
2023/12/28 09:21:27;;;;;;;27.88;18.77;;;;;;;8.51;54.21;95691.34;4190809;28;20067;-71
2023/12/28 09:23:30;;;;;;;31.13;19.42;;;;;;;8.60;53.91;95688.00;4183700;28;20487;-70
2023/12/28 09:25:32;;;;;;;26.15;17.10;;;;;;;8.78;54.40;95685.72;4169310;28;20104;-70
2023/12/28 09:27:34;;;;;;;27.73;17.20;;;;;;;9.06;53.75;95680.88;4169433;28;20068;-71